Aviation Weather View - Albury, NSW
Albury
METAR YMAY 152030Z 00000KT 9999 BKN103 11/11 Q1015
ADVISORY INFORMATION ONLY.
Information and images sourced on a "best effort" basis from
our own station 2.7NM north of the field at 1016ft AMSL.
Weather information is NOT from the Albury Airport.

Contact Ross on 0409-578-660
Updated 2045Z (16-Sep-2019 at 06:45:04 local)
Temperature 12.3 Deg C
QNH is 1016
Humidity is 0% RH
Dewpoint is nan Deg C
Estimated Cloudbase is nan feet amsl
Wind: Calm
Solar Insolation: 16 W/m^2

TWR: 123.25 SMC: 121.8 AWIS: 134.525 ATIS: 115.6/133.85 Map
How to interpret the wind rose
Wind Rose
Solar Radiation Decoded METAR data
Albury Airport (94896, YMAY)
WMO Index: 95896
ID Name: YMAY
Date/Time: 15-Sep-2019 2030 UTC
Lat/Lon: 36.07S 146.95E
Wind: 000 deg true at 00.0 knots
Temperature: 11.3 deg C
Dewpoint: 10.5 deg C
QNH: 1015.3
Rain since 9am: 1.0
Rain last 10 mins: 0.0
Visibility: -9999 metres
AutoVisibility: 10000 metres
Max Wind Gust last 10 mins: 03.0 knots
Broken 3150m (10332ft)

Calculated humidity: 94.8 %RH